Terminal Aerodrome Forecast
Issued by NWS

Home | Current Version | Previous Version | Text Only | Print | Product List | Glossary On
Versions: 1 2 3 4 5 6 7 8 9 10 11 12
000
FTUS43 KPAH 292320
TAFCGI
TAF
KCGI 292320Z 3000/3024 36006KT P6SM FEW080
     FM300600 02003KT P6SM SKC
     FM301530 03007KT P6SM SKC=

USA.gov is the U.S. government's official web portal to all federal, state and local government web resources and services.